sensor_id;sensor_type;location;lat;lon;timestamp;temperature;humidity
67141;DHT22;54058;52.010;5.546;2023-05-07T00:01:33;16.10;80.30
67141;DHT22;54058;52.010;5.546;2023-05-07T00:03:59;16.10;80.50
67141;DHT22;54058;52.010;5.546;2023-05-07T00:06:24;16.10;80.40
67141;DHT22;54058;52.010;5.546;2023-05-07T00:08:51;16.10;80.40
67141;DHT22;54058;52.010;5.546;2023-05-07T00:11:17;16.10;82.60
67141;DHT22;54058;52.010;5.546;2023-05-07T00:13:43;16.00;80.00
67141;DHT22;54058;52.010;5.546;2023-05-07T00:16:08;16.10;80.20
67141;DHT22;54058;52.010;5.546;2023-05-07T00:18:34;16.10;80.20
67141;DHT22;54058;52.010;5.546;2023-05-07T00:20:59;16.00;80.30
67141;DHT22;54058;52.010;5.546;2023-05-07T00:23:25;16.00;80.40
67141;DHT22;54058;52.010;5.546;2023-05-07T00:25:51;16.00;80.60
67141;DHT22;54058;52.010;5.546;2023-05-07T00:28:16;15.90;80.50
67141;DHT22;54058;52.010;5.546;2023-05-07T00:30:42;15.90;80.50
67141;DHT22;54058;52.010;5.546;2023-05-07T00:33:07;15.90;80.70
67141;DHT22;54058;52.010;5.546;2023-05-07T00:35:33;15.90;81.00
67141;DHT22;54058;52.010;5.546;2023-05-07T00:37:59;15.80;80.90
67141;DHT22;54058;52.010;5.546;2023-05-07T00:40:24;15.80;81.10
67141;DHT22;54058;52.010;5.546;2023-05-07T00:42:50;15.80;80.90
67141;DHT22;54058;52.010;5.546;2023-05-07T00:45:16;15.80;80.90
67141;DHT22;54058;52.010;5.546;2023-05-07T00:47:42;15.80;81.00
67141;DHT22;54058;52.010;5.546;2023-05-07T00:50:09;15.80;81.00
67141;DHT22;54058;52.010;5.546;2023-05-07T00:52:37;15.80;81.10
67141;DHT22;54058;52.010;5.546;2023-05-07T00:55:05;15.80;81.10
67141;DHT22;54058;52.010;5.546;2023-05-07T00:57:36;15.80;81.30
67141;DHT22;54058;52.010;5.546;2023-05-07T01:00:04;15.70;81.80
67141;DHT22;54058;52.010;5.546;2023-05-07T01:02:30;15.70;81.30
67141;DHT22;54058;52.010;5.546;2023-05-07T01:04:56;15.70;81.20
67141;DHT22;54058;52.010;5.546;2023-05-07T01:07:22;15.70;81.20
67141;DHT22;54058;52.010;5.546;2023-05-07T01:09:49;15.70;81.10
67141;DHT22;54058;52.010;5.546;2023-05-07T01:12:15;15.70;81.20
67141;DHT22;54058;52.010;5.546;2023-05-07T01:14:41;15.70;81.30
67141;DHT22;54058;52.010;5.546;2023-05-07T01:17:07;15.70;81.30
67141;DHT22;54058;52.010;5.546;2023-05-07T01:19:33;15.70;81.30
67141;DHT22;54058;52.010;5.546;2023-05-07T01:22:03;15.70;82.00
67141;DHT22;54058;52.010;5.546;2023-05-07T01:24:32;15.70;82.10
67141;DHT22;54058;52.010;5.546;2023-05-07T01:26:58;15.70;81.60
67141;DHT22;54058;52.010;5.546;2023-05-07T01:29:24;15.70;81.60
67141;DHT22;54058;52.010;5.546;2023-05-07T01:31:51;15.70;81.80
67141;DHT22;54058;52.010;5.546;2023-05-07T01:34:18;15.70;81.80
67141;DHT22;54058;52.010;5.546;2023-05-07T01:36:44;15.70;81.70
67141;DHT22;54058;52.010;5.546;2023-05-07T01:39:10;15.70;81.50
67141;DHT22;54058;52.010;5.546;2023-05-07T01:41:36;15.70;81.60
67141;DHT22;54058;52.010;5.546;2023-05-07T01:44:03;15.80;81.60
67141;DHT22;54058;52.010;5.546;2023-05-07T01:46:31;15.70;81.50
67141;DHT22;54058;52.010;5.546;2023-05-07T01:48:56;15.80;81.60
67141;DHT22;54058;52.010;5.546;2023-05-07T01:51:22;15.80;81.60
67141;DHT22;54058;52.010;5.546;2023-05-07T01:53:48;15.80;81.60
67141;DHT22;54058;52.010;5.546;2023-05-07T01:56:17;15.80;81.60
67141;DHT22;54058;52.010;5.546;2023-05-07T01:58:44;15.80;81.70
67141;DHT22;54058;52.010;5.546;2023-05-07T02:01:12;15.80;81.80
67141;DHT22;54058;52.010;5.546;2023-05-07T02:03:37;15.80;81.90
67141;DHT22;54058;52.010;5.546;2023-05-07T02:06:03;15.80;81.80
67141;DHT22;54058;52.010;5.546;2023-05-07T02:08:29;15.80;81.90
67141;DHT22;54058;52.010;5.546;2023-05-07T02:10:55;15.80;82.00
67141;DHT22;54058;52.010;5.546;2023-05-07T02:13:21;15.80;81.90
67141;DHT22;54058;52.010;5.546;2023-05-07T02:15:47;15.80;82.00
67141;DHT22;54058;52.010;5.546;2023-05-07T02:18:16;15.80;82.00
67141;DHT22;54058;52.010;5.546;2023-05-07T02:20:42;15.90;82.60
67141;DHT22;54058;52.010;5.546;2023-05-07T02:23:08;15.80;82.00
67141;DHT22;54058;52.010;5.546;2023-05-07T02:25:34;15.80;82.20
67141;DHT22;54058;52.010;5.546;2023-05-07T02:27:59;15.80;82.30
67141;DHT22;54058;52.010;5.546;2023-05-07T02:30:25;15.80;82.50
67141;DHT22;54058;52.010;5.546;2023-05-07T02:32:51;15.90;82.40
67141;DHT22;54058;52.010;5.546;2023-05-07T02:35:17;15.80;82.40
67141;DHT22;54058;52.010;5.546;2023-05-07T02:37:43;15.90;82.40
67141;DHT22;54058;52.010;5.546;2023-05-07T02:40:09;15.80;82.40
67141;DHT22;54058;52.010;5.546;2023-05-07T02:42:35;15.80;82.30
67141;DHT22;54058;52.010;5.546;2023-05-07T02:45:00;15.80;82.20
67141;DHT22;54058;52.010;5.546;2023-05-07T02:47:26;15.80;82.10
67141;DHT22;54058;52.010;5.546;2023-05-07T02:49:55;15.80;82.10
67141;DHT22;54058;52.010;5.546;2023-05-07T02:52:21;15.80;82.20
67141;DHT22;54058;52.010;5.546;2023-05-07T02:54:46;15.80;82.20
67141;DHT22;54058;52.010;5.546;2023-05-07T02:57:12;15.80;82.30
67141;DHT22;54058;52.010;5.546;2023-05-07T02:59:37;15.80;82.40
67141;DHT22;54058;52.010;5.546;2023-05-07T03:02:03;15.80;82.40
67141;DHT22;54058;52.010;5.546;2023-05-07T03:04:29;15.80;82.40
67141;DHT22;54058;52.010;5.546;2023-05-07T03:06:54;15.80;82.40
67141;DHT22;54058;52.010;5.546;2023-05-07T03:09:20;15.80;82.40
67141;DHT22;54058;52.010;5.546;2023-05-07T03:11:46;15.70;82.50
67141;DHT22;54058;52.010;5.546;2023-05-07T03:14:12;15.70;82.70
67141;DHT22;54058;52.010;5.546;2023-05-07T03:16:38;15.70;83.00
67141;DHT22;54058;52.010;5.546;2023-05-07T03:19:03;15.70;83.20
67141;DHT22;54058;52.010;5.546;2023-05-07T03:21:30;15.60;83.20
67141;DHT22;54058;52.010;5.546;2023-05-07T03:23:56;15.60;83.10
67141;DHT22;54058;52.010;5.546;2023-05-07T03:26:21;15.60;83.10
67141;DHT22;54058;52.010;5.546;2023-05-07T03:28:47;15.60;83.10
67141;DHT22;54058;52.010;5.546;2023-05-07T03:31:13;15.60;83.10
67141;DHT22;54058;52.010;5.546;2023-05-07T03:33:56;15.60;83.00
67141;DHT22;54058;52.010;5.546;2023-05-07T03:36:23;15.60;83.20
67141;DHT22;54058;52.010;5.546;2023-05-07T03:38:49;15.60;82.90
67141;DHT22;54058;52.010;5.546;2023-05-07T03:41:15;15.60;82.90
67141;DHT22;54058;52.010;5.546;2023-05-07T03:43:41;15.50;83.00
67141;DHT22;54058;52.010;5.546;2023-05-07T03:46:06;15.50;83.00
67141;DHT22;54058;52.010;5.546;2023-05-07T03:48:32;15.50;83.70
67141;DHT22;54058;52.010;5.546;2023-05-07T03:50:58;15.40;83.30
67141;DHT22;54058;52.010;5.546;2023-05-07T03:53:24;15.40;83.60
67141;DHT22;54058;52.010;5.546;2023-05-07T03:55:49;15.30;83.70
67141;DHT22;54058;52.010;5.546;2023-05-07T03:58:15;15.30;83.80
67141;DHT22;54058;52.010;5.546;2023-05-07T04:00:41;15.30;83.70
67141;DHT22;54058;52.010;5.546;2023-05-07T04:03:07;15.30;83.80
67141;DHT22;54058;52.010;5.546;2023-05-07T04:05:33;15.30;83.90
67141;DHT22;54058;52.010;5.546;2023-05-07T04:07:59;15.30;83.90
67141;DHT22;54058;52.010;5.546;2023-05-07T04:10:25;15.30;83.90
67141;DHT22;54058;52.010;5.546;2023-05-07T04:12:50;15.30;83.90
67141;DHT22;54058;52.010;5.546;2023-05-07T04:15:16;15.40;84.00
67141;DHT22;54058;52.010;5.546;2023-05-07T04:17:42;15.40;83.90
67141;DHT22;54058;52.010;5.546;2023-05-07T04:20:15;15.40;84.00
67141;DHT22;54058;52.010;5.546;2023-05-07T04:22:41;15.40;83.90
67141;DHT22;54058;52.010;5.546;2023-05-07T04:25:08;15.40;83.80
67141;DHT22;54058;52.010;5.546;2023-05-07T04:27:37;15.50;83.90
67141;DHT22;54058;52.010;5.546;2023-05-07T04:30:03;15.50;84.00
67141;DHT22;54058;52.010;5.546;2023-05-07T04:32:29;15.50;84.10
67141;DHT22;54058;52.010;5.546;2023-05-07T04:34:56;15.50;84.20
67141;DHT22;54058;52.010;5.546;2023-05-07T04:37:21;15.50;84.10
67141;DHT22;54058;52.010;5.546;2023-05-07T04:39:47;15.50;84.00
67141;DHT22;54058;52.010;5.546;2023-05-07T04:42:17;15.50;84.00
67141;DHT22;54058;52.010;5.546;2023-05-07T04:44:44;15.60;84.10
67141;DHT22;54058;52.010;5.546;2023-05-07T04:47:10;15.60;84.20
67141;DHT22;54058;52.010;5.546;2023-05-07T04:49:36;15.50;84.10
67141;DHT22;54058;52.010;5.546;2023-05-07T04:52:02;15.50;84.10
67141;DHT22;54058;52.010;5.546;2023-05-07T04:54:28;15.50;84.10
67141;DHT22;54058;52.010;5.546;2023-05-07T04:56:55;15.50;84.10
67141;DHT22;54058;52.010;5.546;2023-05-07T04:59:20;15.50;84.30
67141;DHT22;54058;52.010;5.546;2023-05-07T05:01:46;15.50;84.50
67141;DHT22;54058;52.010;5.546;2023-05-07T05:04:12;15.40;84.70
67141;DHT22;54058;52.010;5.546;2023-05-07T05:06:38;15.40;84.80
67141;DHT22;54058;52.010;5.546;2023-05-07T05:09:04;15.40;84.90
67141;DHT22;54058;52.010;5.546;2023-05-07T05:11:31;15.40;85.00
67141;DHT22;54058;52.010;5.546;2023-05-07T05:14:04;15.50;85.10
67141;DHT22;54058;52.010;5.546;2023-05-07T05:16:37;15.50;85.10
67141;DHT22;54058;52.010;5.546;2023-05-07T05:19:13;15.50;85.10
67141;DHT22;54058;52.010;5.546;2023-05-07T05:21:44;15.60;85.10
67141;DHT22;54058;52.010;5.546;2023-05-07T05:24:18;15.60;85.40
67141;DHT22;54058;52.010;5.546;2023-05-07T05:27:04;15.60;85.20
67141;DHT22;54058;52.010;5.546;2023-05-07T05:29:45;15.60;85.20
67141;DHT22;54058;52.010;5.546;2023-05-07T05:32:28;15.60;84.90
67141;DHT22;54058;52.010;5.546;2023-05-07T05:35:01;15.70;85.10
67141;DHT22;54058;52.010;5.546;2023-05-07T05:37:31;15.70;85.00
67141;DHT22;54058;52.010;5.546;2023-05-07T05:39:56;15.70;85.00
67141;DHT22;54058;52.010;5.546;2023-05-07T05:42:22;15.70;85.10
67141;DHT22;54058;52.010;5.546;2023-05-07T05:44:48;15.70;85.20
67141;DHT22;54058;52.010;5.546;2023-05-07T05:47:14;15.70;85.20
67141;DHT22;54058;52.010;5.546;2023-05-07T05:49:40;15.80;85.10
67141;DHT22;54058;52.010;5.546;2023-05-07T05:52:05;15.80;85.00
67141;DHT22;54058;52.010;5.546;2023-05-07T05:54:31;15.80;85.10
67141;DHT22;54058;52.010;5.546;2023-05-07T05:56:56;15.80;85.20
67141;DHT22;54058;52.010;5.546;2023-05-07T05:59:22;15.80;85.20
67141;DHT22;54058;52.010;5.546;2023-05-07T06:01:48;15.80;85.10
67141;DHT22;54058;52.010;5.546;2023-05-07T06:04:14;15.90;85.20
67141;DHT22;54058;52.010;5.546;2023-05-07T06:06:40;15.90;85.30
67141;DHT22;54058;52.010;5.546;2023-05-07T06:09:05;15.90;85.20
67141;DHT22;54058;52.010;5.546;2023-05-07T06:11:31;15.80;85.40
67141;DHT22;54058;52.010;5.546;2023-05-07T06:13:57;15.80;85.50
67141;DHT22;54058;52.010;5.546;2023-05-07T06:16:24;15.80;85.80
67141;DHT22;54058;52.010;5.546;2023-05-07T06:18:49;15.80;85.80
67141;DHT22;54058;52.010;5.546;2023-05-07T06:21:15;15.80;86.20
67141;DHT22;54058;52.010;5.546;2023-05-07T06:23:41;15.80;86.00
67141;DHT22;54058;52.010;5.546;2023-05-07T06:26:07;15.80;86.00
67141;DHT22;54058;52.010;5.546;2023-05-07T06:28:32;15.80;86.20
67141;DHT22;54058;52.010;5.546;2023-05-07T06:31:20;15.80;85.80
67141;DHT22;54058;52.010;5.546;2023-05-07T06:33:45;15.90;86.10
67141;DHT22;54058;52.010;5.546;2023-05-07T06:36:11;15.90;86.10
67141;DHT22;54058;52.010;5.546;2023-05-07T06:38:37;15.90;86.10
67141;DHT22;54058;52.010;5.546;2023-05-07T06:41:03;16.00;86.20
67141;DHT22;54058;52.010;5.546;2023-05-07T06:43:28;16.00;86.30
67141;DHT22;54058;52.010;5.546;2023-05-07T06:45:54;16.00;86.10
67141;DHT22;54058;52.010;5.546;2023-05-07T06:48:20;16.00;86.10
67141;DHT22;54058;52.010;5.546;2023-05-07T06:50:45;16.10;85.80
67141;DHT22;54058;52.010;5.546;2023-05-07T06:53:11;16.10;85.70
67141;DHT22;54058;52.010;5.546;2023-05-07T06:55:36;16.10;85.80
67141;DHT22;54058;52.010;5.546;2023-05-07T06:58:03;16.10;85.70
67141;DHT22;54058;52.010;5.546;2023-05-07T07:00:29;16.20;85.60
67141;DHT22;54058;52.010;5.546;2023-05-07T07:02:56;16.20;85.80
67141;DHT22;54058;52.010;5.546;2023-05-07T07:05:21;16.30;86.20
67141;DHT22;54058;52.010;5.546;2023-05-07T07:07:47;16.40;85.80
67141;DHT22;54058;52.010;5.546;2023-05-07T07:10:20;16.50;85.80
67141;DHT22;54058;52.010;5.546;2023-05-07T07:12:45;16.60;85.90
67141;DHT22;54058;52.010;5.546;2023-05-07T07:15:11;16.60;85.60
67141;DHT22;54058;52.010;5.546;2023-05-07T07:17:37;16.60;85.50
67141;DHT22;54058;52.010;5.546;2023-05-07T07:20:03;16.70;85.60
67141;DHT22;54058;52.010;5.546;2023-05-07T07:22:29;16.70;85.50
67141;DHT22;54058;52.010;5.546;2023-05-07T07:24:54;16.70;85.80
67141;DHT22;54058;52.010;5.546;2023-05-07T07:27:20;16.70;85.90
67141;DHT22;54058;52.010;5.546;2023-05-07T07:29:46;16.70;85.80
67141;DHT22;54058;52.010;5.546;2023-05-07T07:32:11;16.80;85.80
67141;DHT22;54058;52.010;5.546;2023-05-07T07:34:37;16.80;85.90
67141;DHT22;54058;52.010;5.546;2023-05-07T07:37:02;16.80;85.70
67141;DHT22;54058;52.010;5.546;2023-05-07T07:39:31;16.80;85.90
67141;DHT22;54058;52.010;5.546;2023-05-07T07:41:57;16.80;85.90
67141;DHT22;54058;52.010;5.546;2023-05-07T07:44:23;16.90;86.00
67141;DHT22;54058;52.010;5.546;2023-05-07T07:46:48;16.90;86.10
67141;DHT22;54058;52.010;5.546;2023-05-07T07:49:14;16.90;86.00
67141;DHT22;54058;52.010;5.546;2023-05-07T07:51:40;16.90;86.10
67141;DHT22;54058;52.010;5.546;2023-05-07T07:54:06;16.90;86.20
67141;DHT22;54058;52.010;5.546;2023-05-07T07:56:35;16.90;86.10
67141;DHT22;54058;52.010;5.546;2023-05-07T07:59:01;16.90;86.20
67141;DHT22;54058;52.010;5.546;2023-05-07T08:01:27;16.90;86.30
67141;DHT22;54058;52.010;5.546;2023-05-07T08:03:52;16.90;86.20
67141;DHT22;54058;52.010;5.546;2023-05-07T08:06:18;16.80;86.50
67141;DHT22;54058;52.010;5.546;2023-05-07T08:08:44;16.80;86.90
67141;DHT22;54058;52.010;5.546;2023-05-07T08:11:09;16.80;87.60
67141;DHT22;54058;52.010;5.546;2023-05-07T08:13:36;16.80;87.20
67141;DHT22;54058;52.010;5.546;2023-05-07T08:16:02;16.90;87.20
67141;DHT22;54058;52.010;5.546;2023-05-07T08:18:27;17.00;87.10
67141;DHT22;54058;52.010;5.546;2023-05-07T08:20:54;17.30;87.10
67141;DHT22;54058;52.010;5.546;2023-05-07T08:23:20;17.40;86.90
67141;DHT22;54058;52.010;5.546;2023-05-07T08:25:46;17.60;86.80
67141;DHT22;54058;52.010;5.546;2023-05-07T08:28:12;17.70;86.60
67141;DHT22;54058;52.010;5.546;2023-05-07T08:30:37;17.70;86.70
67141;DHT22;54058;52.010;5.546;2023-05-07T08:33:03;17.70;86.80
67141;DHT22;54058;52.010;5.546;2023-05-07T08:35:29;17.80;86.70
67141;DHT22;54058;52.010;5.546;2023-05-07T08:37:55;17.80;86.70
67141;DHT22;54058;52.010;5.546;2023-05-07T08:40:25;17.90;86.70
67141;DHT22;54058;52.010;5.546;2023-05-07T08:42:52;17.80;86.70
67141;DHT22;54058;52.010;5.546;2023-05-07T08:45:19;17.70;86.70
67141;DHT22;54058;52.010;5.546;2023-05-07T08:47:58;17.70;87.20
67141;DHT22;54058;52.010;5.546;2023-05-07T08:50:24;17.60;87.40
67141;DHT22;54058;52.010;5.546;2023-05-07T08:52:50;17.60;87.40
67141;DHT22;54058;52.010;5.546;2023-05-07T08:55:16;17.80;87.10
67141;DHT22;54058;52.010;5.546;2023-05-07T08:57:42;17.90;87.00
67141;DHT22;54058;52.010;5.546;2023-05-07T09:00:08;18.00;86.90
67141;DHT22;54058;52.010;5.546;2023-05-07T09:02:35;18.00;86.70
67141;DHT22;54058;52.010;5.546;2023-05-07T09:05:01;18.00;87.50
67141;DHT22;54058;52.010;5.546;2023-05-07T09:07:27;18.10;87.00
67141;DHT22;54058;52.010;5.546;2023-05-07T09:09:53;18.20;86.90
67141;DHT22;54058;52.010;5.546;2023-05-07T09:12:23;18.30;86.60
67141;DHT22;54058;52.010;5.546;2023-05-07T09:14:49;18.60;86.60
67141;DHT22;54058;52.010;5.546;2023-05-07T09:17:18;18.90;86.00
67141;DHT22;54058;52.010;5.546;2023-05-07T09:19:44;19.10;85.60
67141;DHT22;54058;52.010;5.546;2023-05-07T09:22:14;19.60;85.20
67141;DHT22;54058;52.010;5.546;2023-05-07T09:24:40;19.90;84.60
67141;DHT22;54058;52.010;5.546;2023-05-07T09:27:06;20.30;83.70
67141;DHT22;54058;52.010;5.546;2023-05-07T09:29:32;20.40;83.60
67141;DHT22;54058;52.010;5.546;2023-05-07T09:32:07;20.40;83.40
67141;DHT22;54058;52.010;5.546;2023-05-07T09:34:34;20.30;83.40
67141;DHT22;54058;52.010;5.546;2023-05-07T09:37:04;20.30;83.80
67141;DHT22;54058;52.010;5.546;2023-05-07T09:42:06;20.50;83.40
67141;DHT22;54058;52.010;5.546;2023-05-07T09:44:32;20.50;83.50
67141;DHT22;54058;52.010;5.546;2023-05-07T09:46:59;20.60;83.50
67141;DHT22;54058;52.010;5.546;2023-05-07T09:49:28;20.70;83.10
67141;DHT22;54058;52.010;5.546;2023-05-07T09:52:00;20.80;82.70
67141;DHT22;54058;52.010;5.546;2023-05-07T09:54:26;20.80;82.40
67141;DHT22;54058;52.010;5.546;2023-05-07T09:56:54;21.00;82.50
67141;DHT22;54058;52.010;5.546;2023-05-07T09:59:20;21.20;82.00
67141;DHT22;54058;52.010;5.546;2023-05-07T10:01:46;21.20;81.90
67141;DHT22;54058;52.010;5.546;2023-05-07T10:04:14;21.10;81.80
67141;DHT22;54058;52.010;5.546;2023-05-07T10:06:40;21.20;81.70
67141;DHT22;54058;52.010;5.546;2023-05-07T10:09:06;21.20;81.70
67141;DHT22;54058;52.010;5.546;2023-05-07T10:11:33;21.10;81.30
67141;DHT22;54058;52.010;5.546;2023-05-07T10:14:03;21.00;81.80
67141;DHT22;54058;52.010;5.546;2023-05-07T10:16:32;21.00;81.20
67141;DHT22;54058;52.010;5.546;2023-05-07T10:19:05;21.10;81.80
67141;DHT22;54058;52.010;5.546;2023-05-07T10:21:38;21.30;81.20
67141;DHT22;54058;52.010;5.546;2023-05-07T10:24:08;21.50;81.10
67141;DHT22;54058;52.010;5.546;2023-05-07T10:26:44;21.70;80.30
67141;DHT22;54058;52.010;5.546;2023-05-07T10:34:43;22.00;79.30
67141;DHT22;54058;52.010;5.546;2023-05-07T10:37:11;22.00;78.30
67141;DHT22;54058;52.010;5.546;2023-05-07T10:39:37;22.00;78.60
67141;DHT22;54058;52.010;5.546;2023-05-07T10:42:10;22.00;78.80
67141;DHT22;54058;52.010;5.546;2023-05-07T10:44:36;22.00;78.10
67141;DHT22;54058;52.010;5.546;2023-05-07T10:47:06;22.00;78.90
67141;DHT22;54058;52.010;5.546;2023-05-07T10:49:34;22.00;73.60
67141;DHT22;54058;52.010;5.546;2023-05-07T10:52:16;22.10;78.50
67141;DHT22;54058;52.010;5.546;2023-05-07T10:54:42;22.10;76.60
67141;DHT22;54058;52.010;5.546;2023-05-07T10:57:38;22.20;78.00
67141;DHT22;54058;52.010;5.546;2023-05-07T11:05:26;22.30;74.70
67141;DHT22;54058;52.010;5.546;2023-05-07T11:08:02;22.10;77.10
67141;DHT22;54058;52.010;5.546;2023-05-07T11:10:51;21.90;77.20
67141;DHT22;54058;52.010;5.546;2023-05-07T11:13:17;22.00;74.70
67141;DHT22;54058;52.010;5.546;2023-05-07T11:15:48;22.10;77.90
67141;DHT22;54058;52.010;5.546;2023-05-07T11:18:15;22.10;76.50
67141;DHT22;54058;52.010;5.546;2023-05-07T11:26:10;22.10;73.30
67141;DHT22;54058;52.010;5.546;2023-05-07T11:28:41;22.10;74.70
67141;DHT22;54058;52.010;5.546;2023-05-07T11:31:09;22.20;75.00
67141;DHT22;54058;52.010;5.546;2023-05-07T11:33:35;22.30;74.60
67141;DHT22;54058;52.010;5.546;2023-05-07T11:36:05;22.40;74.90
67141;DHT22;54058;52.010;5.546;2023-05-07T11:38:37;22.70;75.10
67141;DHT22;54058;52.010;5.546;2023-05-07T11:41:03;23.00;74.50
67141;DHT22;54058;52.010;5.546;2023-05-07T11:43:31;23.10;74.30
67141;DHT22;54058;52.010;5.546;2023-05-07T11:46:06;23.30;73.90
67141;DHT22;54058;52.010;5.546;2023-05-07T11:48:33;23.40;71.90
67141;DHT22;54058;52.010;5.546;2023-05-07T11:53:25;23.70;72.50
67141;DHT22;54058;52.010;5.546;2023-05-07T11:55:57;23.60;72.60
67141;DHT22;54058;52.010;5.546;2023-05-07T11:58:24;23.70;67.70
67141;DHT22;54058;52.010;5.546;2023-05-07T12:00:54;23.70;72.60
67141;DHT22;54058;52.010;5.546;2023-05-07T12:03:20;23.70;71.40
67141;DHT22;54058;52.010;5.546;2023-05-07T12:05:47;23.80;71.80
67141;DHT22;54058;52.010;5.546;2023-05-07T12:08:16;23.80;71.40
67141;DHT22;54058;52.010;5.546;2023-05-07T12:10:42;23.70;66.50
67141;DHT22;54058;52.010;5.546;2023-05-07T12:13:28;23.60;72.10
67141;DHT22;54058;52.010;5.546;2023-05-07T12:15:55;23.70;69.90
67141;DHT22;54058;52.010;5.546;2023-05-07T12:18:22;23.70;71.10
67141;DHT22;54058;52.010;5.546;2023-05-07T12:20:48;23.60;71.10
67141;DHT22;54058;52.010;5.546;2023-05-07T12:23:14;23.30;71.10
67141;DHT22;54058;52.010;5.546;2023-05-07T12:25:42;23.10;71.50
67141;DHT22;54058;52.010;5.546;2023-05-07T12:28:14;23.10;72.00
67141;DHT22;54058;52.010;5.546;2023-05-07T12:30:42;23.30;71.70
67141;DHT22;54058;52.010;5.546;2023-05-07T12:33:08;23.40;71.10
67141;DHT22;54058;52.010;5.546;2023-05-07T12:35:41;23.60;70.40
67141;DHT22;54058;52.010;5.546;2023-05-07T12:38:08;23.70;70.20
67141;DHT22;54058;52.010;5.546;2023-05-07T12:40:42;23.80;70.60
67141;DHT22;54058;52.010;5.546;2023-05-07T12:45:48;23.60;67.80
67141;DHT22;54058;52.010;5.546;2023-05-07T12:48:14;23.50;69.60
67141;DHT22;54058;52.010;5.546;2023-05-07T12:50:40;23.50;69.10
67141;DHT22;54058;52.010;5.546;2023-05-07T12:53:07;23.60;68.60
67141;DHT22;54058;52.010;5.546;2023-05-07T12:55:44;23.60;68.30
67141;DHT22;54058;52.010;5.546;2023-05-07T12:58:24;23.40;66.80
67141;DHT22;54058;52.010;5.546;2023-05-07T13:00:50;23.40;65.60
67141;DHT22;54058;52.010;5.546;2023-05-07T13:05:53;23.40;64.00
67141;DHT22;54058;52.010;5.546;2023-05-07T13:08:24;23.50;66.30
67141;DHT22;54058;52.010;5.546;2023-05-07T13:10:50;23.50;66.40
67141;DHT22;54058;52.010;5.546;2023-05-07T13:13:16;23.60;66.70
67141;DHT22;54058;52.010;5.546;2023-05-07T13:15:41;23.60;66.20
67141;DHT22;54058;52.010;5.546;2023-05-07T13:18:07;23.50;66.50
67141;DHT22;54058;52.010;5.546;2023-05-07T13:20:32;23.40;66.80
67141;DHT22;54058;52.010;5.546;2023-05-07T13:22:58;23.30;66.30
67141;DHT22;54058;52.010;5.546;2023-05-07T13:25:26;23.20;66.20
67141;DHT22;54058;52.010;5.546;2023-05-07T13:27:51;23.20;66.20
67141;DHT22;54058;52.010;5.546;2023-05-07T13:30:17;23.10;66.50
67141;DHT22;54058;52.010;5.546;2023-05-07T13:32:43;23.10;66.80
67141;DHT22;54058;52.010;5.546;2023-05-07T13:35:09;23.10;66.70
67141;DHT22;54058;52.010;5.546;2023-05-07T13:37:35;23.10;66.60
67141;DHT22;54058;52.010;5.546;2023-05-07T13:40:00;23.20;66.50
67141;DHT22;54058;52.010;5.546;2023-05-07T13:42:26;23.10;66.70
67141;DHT22;54058;52.010;5.546;2023-05-07T13:44:51;23.10;67.50
67141;DHT22;54058;52.010;5.546;2023-05-07T13:47:17;23.20;67.20
67141;DHT22;54058;52.010;5.546;2023-05-07T13:49:43;23.20;67.40
67141;DHT22;54058;52.010;5.546;2023-05-07T13:52:08;23.20;67.20
67141;DHT22;54058;52.010;5.546;2023-05-07T13:54:34;23.20;67.30
67141;DHT22;54058;52.010;5.546;2023-05-07T13:56:59;23.30;67.40
67141;DHT22;54058;52.010;5.546;2023-05-07T13:59:25;23.40;67.60
67141;DHT22;54058;52.010;5.546;2023-05-07T14:01:51;23.30;67.10
67141;DHT22;54058;52.010;5.546;2023-05-07T14:04:16;23.30;67.30
67141;DHT22;54058;52.010;5.546;2023-05-07T14:06:42;23.40;67.20
67141;DHT22;54058;52.010;5.546;2023-05-07T14:09:08;23.30;66.30
67141;DHT22;54058;52.010;5.546;2023-05-07T14:11:33;23.10;66.70
67141;DHT22;54058;52.010;5.546;2023-05-07T14:13:59;23.20;67.10
67141;DHT22;54058;52.010;5.546;2023-05-07T14:16:24;23.30;66.90
67141;DHT22;54058;52.010;5.546;2023-05-07T14:18:50;23.40;66.30
67141;DHT22;54058;52.010;5.546;2023-05-07T14:21:16;23.50;66.10
67141;DHT22;54058;52.010;5.546;2023-05-07T14:23:41;23.60;65.90
67141;DHT22;54058;52.010;5.546;2023-05-07T14:26:07;23.50;65.80
67141;DHT22;54058;52.010;5.546;2023-05-07T14:28:32;23.60;65.70
67141;DHT22;54058;52.010;5.546;2023-05-07T14:30:58;23.60;65.30
67141;DHT22;54058;52.010;5.546;2023-05-07T14:33:24;23.60;65.00
67141;DHT22;54058;52.010;5.546;2023-05-07T14:35:50;23.50;62.10
67141;DHT22;54058;52.010;5.546;2023-05-07T14:38:16;23.60;65.60
67141;DHT22;54058;52.010;5.546;2023-05-07T14:40:42;23.60;65.40
67141;DHT22;54058;52.010;5.546;2023-05-07T14:43:07;23.50;65.20
67141;DHT22;54058;52.010;5.546;2023-05-07T14:45:33;23.50;65.30
67141;DHT22;54058;52.010;5.546;2023-05-07T14:47:58;23.40;65.20
67141;DHT22;54058;52.010;5.546;2023-05-07T14:50:24;23.20;65.00
67141;DHT22;54058;52.010;5.546;2023-05-07T14:52:50;23.10;65.60
67141;DHT22;54058;52.010;5.546;2023-05-07T14:55:15;23.00;65.60
67141;DHT22;54058;52.010;5.546;2023-05-07T14:57:41;23.00;66.20
67141;DHT22;54058;52.010;5.546;2023-05-07T15:00:07;22.90;66.40
67141;DHT22;54058;52.010;5.546;2023-05-07T15:02:34;22.60;66.90
67141;DHT22;54058;52.010;5.546;2023-05-07T15:04:59;22.40;67.60
67141;DHT22;54058;52.010;5.546;2023-05-07T15:07:25;22.10;67.90
67141;DHT22;54058;52.010;5.546;2023-05-07T15:09:51;21.90;68.30
67141;DHT22;54058;52.010;5.546;2023-05-07T15:12:17;21.70;68.50
67141;DHT22;54058;52.010;5.546;2023-05-07T15:14:42;21.60;68.60
67141;DHT22;54058;52.010;5.546;2023-05-07T15:17:08;21.40;68.80
67141;DHT22;54058;52.010;5.546;2023-05-07T15:19:34;21.20;69.10
67141;DHT22;54058;52.010;5.546;2023-05-07T15:22:00;21.00;69.60
67141;DHT22;54058;52.010;5.546;2023-05-07T15:24:29;20.80;70.10
67141;DHT22;54058;52.010;5.546;2023-05-07T15:26:55;20.50;71.30
67141;DHT22;54058;52.010;5.546;2023-05-07T15:29:21;20.30;71.90
67141;DHT22;54058;52.010;5.546;2023-05-07T15:31:46;20.00;72.10
67141;DHT22;54058;52.010;5.546;2023-05-07T15:34:12;19.70;72.80
67141;DHT22;54058;52.010;5.546;2023-05-07T15:36:40;19.30;72.80
67141;DHT22;54058;52.010;5.546;2023-05-07T15:39:06;19.00;73.40
67141;DHT22;54058;52.010;5.546;2023-05-07T15:41:31;18.80;73.90
67141;DHT22;54058;52.010;5.546;2023-05-07T15:43:57;18.50;74.30
67141;DHT22;54058;52.010;5.546;2023-05-07T15:46:24;18.20;74.40
67141;DHT22;54058;52.010;5.546;2023-05-07T15:48:51;17.90;74.80
67141;DHT22;54058;52.010;5.546;2023-05-07T15:51:16;17.70;75.00
67141;DHT22;54058;52.010;5.546;2023-05-07T15:53:43;17.50;74.90
67141;DHT22;54058;52.010;5.546;2023-05-07T15:56:09;17.30;75.10